sensor_id;sensor_type;location;lat;lon;timestamp;temperature;humidity
47090;DHT22;32840;52.516;13.294;2023-11-25T00:00:35;3.00;99.90
47090;DHT22;32840;52.516;13.294;2023-11-25T00:07:01;2.90;99.90
47090;DHT22;32840;52.516;13.294;2023-11-25T00:09:47;2.90;99.90
47090;DHT22;32840;52.516;13.294;2023-11-25T00:12:32;3.00;99.90
47090;DHT22;32840;52.516;13.294;2023-11-25T00:15:17;3.00;99.90
47090;DHT22;32840;52.516;13.294;2023-11-25T00:18:03;3.00;99.90
47090;DHT22;32840;52.516;13.294;2023-11-25T00:20:48;2.90;99.90
47090;DHT22;32840;52.516;13.294;2023-11-25T00:23:33;2.90;99.90
47090;DHT22;32840;52.516;13.294;2023-11-25T00:26:18;2.90;99.90
47090;DHT22;32840;52.516;13.294;2023-11-25T00:29:04;2.80;99.90
47090;DHT22;32840;52.516;13.294;2023-11-25T00:31:53;2.80;99.90
47090;DHT22;32840;52.516;13.294;2023-11-25T00:34:39;2.70;99.90
47090;DHT22;32840;52.516;13.294;2023-11-25T00:37:24;2.80;99.90
47090;DHT22;32840;52.516;13.294;2023-11-25T00:40:10;2.80;99.90
47090;DHT22;32840;52.516;13.294;2023-11-25T00:42:55;2.70;99.90
47090;DHT22;32840;52.516;13.294;2023-11-25T00:45:42;2.80;99.90
47090;DHT22;32840;52.516;13.294;2023-11-25T00:48:27;2.80;99.90
47090;DHT22;32840;52.516;13.294;2023-11-25T00:51:12;2.70;99.90
47090;DHT22;32840;52.516;13.294;2023-11-25T00:53:57;2.80;99.90
47090;DHT22;32840;52.516;13.294;2023-11-25T00:56:42;2.70;99.90
47090;DHT22;32840;52.516;13.294;2023-11-25T00:59:28;2.70;99.90
47090;DHT22;32840;52.516;13.294;2023-11-25T01:02:13;2.70;99.90
47090;DHT22;32840;52.516;13.294;2023-11-25T01:04:59;2.70;99.90
47090;DHT22;32840;52.516;13.294;2023-11-25T01:07:43;2.70;99.90
47090;DHT22;32840;52.516;13.294;2023-11-25T01:10:30;2.70;99.90
47090;DHT22;32840;52.516;13.294;2023-11-25T01:13:15;2.60;99.90
47090;DHT22;32840;52.516;13.294;2023-11-25T01:16:00;2.60;99.90
47090;DHT22;32840;52.516;13.294;2023-11-25T01:18:45;2.70;99.90
47090;DHT22;32840;52.516;13.294;2023-11-25T01:21:32;2.60;99.90
47090;DHT22;32840;52.516;13.294;2023-11-25T01:24:17;2.60;99.90
47090;DHT22;32840;52.516;13.294;2023-11-25T01:27:01;2.60;99.90
47090;DHT22;32840;52.516;13.294;2023-11-25T01:29:47;2.50;99.90
47090;DHT22;32840;52.516;13.294;2023-11-25T01:32:33;2.50;99.90
47090;DHT22;32840;52.516;13.294;2023-11-25T01:35:18;2.50;99.90
47090;DHT22;32840;52.516;13.294;2023-11-25T01:38:03;2.50;99.90
47090;DHT22;32840;52.516;13.294;2023-11-25T01:40:48;2.60;99.90
47090;DHT22;32840;52.516;13.294;2023-11-25T01:43:33;2.70;99.90
47090;DHT22;32840;52.516;13.294;2023-11-25T01:46:39;2.80;99.90
47090;DHT22;32840;52.516;13.294;2023-11-25T01:49:27;2.90;99.90
47090;DHT22;32840;52.516;13.294;2023-11-25T01:52:12;3.00;99.90
47090;DHT22;32840;52.516;13.294;2023-11-25T01:54:57;3.00;99.90
47090;DHT22;32840;52.516;13.294;2023-11-25T01:57:45;3.10;99.90
47090;DHT22;32840;52.516;13.294;2023-11-25T02:00:30;3.20;99.90
47090;DHT22;32840;52.516;13.294;2023-11-25T02:03:16;3.20;99.90
47090;DHT22;32840;52.516;13.294;2023-11-25T02:06:01;3.30;99.90
47090;DHT22;32840;52.516;13.294;2023-11-25T02:08:46;3.30;99.90
47090;DHT22;32840;52.516;13.294;2023-11-25T02:11:30;3.40;99.90
47090;DHT22;32840;52.516;13.294;2023-11-25T02:14:15;3.50;99.90
47090;DHT22;32840;52.516;13.294;2023-11-25T02:17:00;3.40;99.90
47090;DHT22;32840;52.516;13.294;2023-11-25T02:19:45;3.50;99.90
47090;DHT22;32840;52.516;13.294;2023-11-25T02:22:31;3.40;99.90
47090;DHT22;32840;52.516;13.294;2023-11-25T02:25:16;3.50;99.90
47090;DHT22;32840;52.516;13.294;2023-11-25T02:28:01;3.40;99.90
47090;DHT22;32840;52.516;13.294;2023-11-25T02:30:46;3.40;99.90
47090;DHT22;32840;52.516;13.294;2023-11-25T02:33:32;3.40;99.90
47090;DHT22;32840;52.516;13.294;2023-11-25T02:36:19;3.40;99.90
47090;DHT22;32840;52.516;13.294;2023-11-25T02:39:04;3.40;99.90
47090;DHT22;32840;52.516;13.294;2023-11-25T02:41:49;3.40;99.90
47090;DHT22;32840;52.516;13.294;2023-11-25T02:44:35;3.40;99.90
47090;DHT22;32840;52.516;13.294;2023-11-25T02:47:20;3.40;99.90
47090;DHT22;32840;52.516;13.294;2023-11-25T02:50:05;3.40;99.90
47090;DHT22;32840;52.516;13.294;2023-11-25T02:52:53;3.40;99.90
47090;DHT22;32840;52.516;13.294;2023-11-25T02:55:38;3.40;99.90
47090;DHT22;32840;52.516;13.294;2023-11-25T02:58:24;3.50;99.90
47090;DHT22;32840;52.516;13.294;2023-11-25T03:01:12;3.50;99.90
47090;DHT22;32840;52.516;13.294;2023-11-25T03:03:58;3.50;99.90
47090;DHT22;32840;52.516;13.294;2023-11-25T03:06:46;3.50;99.90
47090;DHT22;32840;52.516;13.294;2023-11-25T03:09:32;3.60;99.90
47090;DHT22;32840;52.516;13.294;2023-11-25T03:12:18;3.60;99.90
47090;DHT22;32840;52.516;13.294;2023-11-25T03:15:03;3.60;99.90
47090;DHT22;32840;52.516;13.294;2023-11-25T03:17:48;3.50;99.90
47090;DHT22;32840;52.516;13.294;2023-11-25T03:20:34;3.50;99.90
47090;DHT22;32840;52.516;13.294;2023-11-25T03:23:19;3.50;99.90
47090;DHT22;32840;52.516;13.294;2023-11-25T03:26:04;3.60;99.90
47090;DHT22;32840;52.516;13.294;2023-11-25T03:28:49;3.50;99.90
47090;DHT22;32840;52.516;13.294;2023-11-25T03:31:34;3.40;99.90
47090;DHT22;32840;52.516;13.294;2023-11-25T03:34:24;3.40;99.90
47090;DHT22;32840;52.516;13.294;2023-11-25T03:37:10;3.40;99.90
47090;DHT22;32840;52.516;13.294;2023-11-25T03:39:55;3.40;99.90
47090;DHT22;32840;52.516;13.294;2023-11-25T03:42:40;3.50;99.90
47090;DHT22;32840;52.516;13.294;2023-11-25T03:45:25;3.50;99.90
47090;DHT22;32840;52.516;13.294;2023-11-25T03:48:10;3.60;99.90
47090;DHT22;32840;52.516;13.294;2023-11-25T03:50:55;3.60;99.90
47090;DHT22;32840;52.516;13.294;2023-11-25T03:53:40;3.60;99.90
47090;DHT22;32840;52.516;13.294;2023-11-25T03:56:25;3.50;99.90
47090;DHT22;32840;52.516;13.294;2023-11-25T03:59:10;3.50;99.90
47090;DHT22;32840;52.516;13.294;2023-11-25T04:01:55;3.50;99.90
47090;DHT22;32840;52.516;13.294;2023-11-25T04:04:40;3.50;99.90
47090;DHT22;32840;52.516;13.294;2023-11-25T04:07:26;3.50;99.90
47090;DHT22;32840;52.516;13.294;2023-11-25T04:10:12;3.40;99.90
47090;DHT22;32840;52.516;13.294;2023-11-25T04:12:57;3.50;99.90
47090;DHT22;32840;52.516;13.294;2023-11-25T04:15:43;3.50;99.90
47090;DHT22;32840;52.516;13.294;2023-11-25T04:18:27;3.50;99.90
47090;DHT22;32840;52.516;13.294;2023-11-25T04:21:13;3.40;99.90
47090;DHT22;32840;52.516;13.294;2023-11-25T04:23:58;3.30;99.90
47090;DHT22;32840;52.516;13.294;2023-11-25T04:26:43;3.30;99.90
47090;DHT22;32840;52.516;13.294;2023-11-25T04:29:28;3.40;99.90
47090;DHT22;32840;52.516;13.294;2023-11-25T04:32:13;3.30;99.90
47090;DHT22;32840;52.516;13.294;2023-11-25T04:34:58;3.40;99.90
47090;DHT22;32840;52.516;13.294;2023-11-25T04:37:44;3.40;99.90
47090;DHT22;32840;52.516;13.294;2023-11-25T04:40:32;3.50;99.90
47090;DHT22;32840;52.516;13.294;2023-11-25T04:43:17;3.50;99.90
47090;DHT22;32840;52.516;13.294;2023-11-25T04:46:02;3.50;99.90
47090;DHT22;32840;52.516;13.294;2023-11-25T04:48:49;3.50;99.90
47090;DHT22;32840;52.516;13.294;2023-11-25T04:51:35;3.50;99.90
47090;DHT22;32840;52.516;13.294;2023-11-25T04:54:20;3.40;99.90
47090;DHT22;32840;52.516;13.294;2023-11-25T04:57:05;3.40;99.90
47090;DHT22;32840;52.516;13.294;2023-11-25T04:59:50;3.30;99.90
47090;DHT22;32840;52.516;13.294;2023-11-25T05:02:39;3.20;99.90
47090;DHT22;32840;52.516;13.294;2023-11-25T05:05:24;3.20;99.90
47090;DHT22;32840;52.516;13.294;2023-11-25T05:08:09;3.10;99.90
47090;DHT22;32840;52.516;13.294;2023-11-25T05:10:54;3.10;99.90
47090;DHT22;32840;52.516;13.294;2023-11-25T05:13:39;3.20;99.90
47090;DHT22;32840;52.516;13.294;2023-11-25T05:16:24;3.20;99.90
47090;DHT22;32840;52.516;13.294;2023-11-25T05:19:10;3.30;99.90
47090;DHT22;32840;52.516;13.294;2023-11-25T05:21:55;3.30;99.90
47090;DHT22;32840;52.516;13.294;2023-11-25T05:24:40;3.30;99.90
47090;DHT22;32840;52.516;13.294;2023-11-25T05:27:25;3.30;99.90
47090;DHT22;32840;52.516;13.294;2023-11-25T05:30:10;3.20;99.90
47090;DHT22;32840;52.516;13.294;2023-11-25T05:32:57;3.20;99.90
47090;DHT22;32840;52.516;13.294;2023-11-25T05:35:43;3.20;99.90
47090;DHT22;32840;52.516;13.294;2023-11-25T05:38:31;3.10;99.90
47090;DHT22;32840;52.516;13.294;2023-11-25T05:41:16;3.20;99.90
47090;DHT22;32840;52.516;13.294;2023-11-25T05:44:39;3.10;99.90
47090;DHT22;32840;52.516;13.294;2023-11-25T05:47:24;3.10;99.90
47090;DHT22;32840;52.516;13.294;2023-11-25T05:50:09;3.10;99.90
47090;DHT22;32840;52.516;13.294;2023-11-25T05:52:54;3.10;99.90
47090;DHT22;32840;52.516;13.294;2023-11-25T05:55:40;3.00;99.90
47090;DHT22;32840;52.516;13.294;2023-11-25T05:58:25;3.00;99.90
47090;DHT22;32840;52.516;13.294;2023-11-25T06:01:10;3.00;99.90
47090;DHT22;32840;52.516;13.294;2023-11-25T06:03:58;3.10;99.90
47090;DHT22;32840;52.516;13.294;2023-11-25T06:06:43;3.10;99.90
47090;DHT22;32840;52.516;13.294;2023-11-25T06:09:27;3.00;99.90
47090;DHT22;32840;52.516;13.294;2023-11-25T06:12:12;3.00;99.90
47090;DHT22;32840;52.516;13.294;2023-11-25T06:14:58;2.90;99.90
47090;DHT22;32840;52.516;13.294;2023-11-25T06:17:43;2.90;99.90
47090;DHT22;32840;52.516;13.294;2023-11-25T06:20:29;2.90;99.90
47090;DHT22;32840;52.516;13.294;2023-11-25T06:23:14;2.90;99.90
47090;DHT22;32840;52.516;13.294;2023-11-25T06:26:01;2.80;99.90
47090;DHT22;32840;52.516;13.294;2023-11-25T06:28:47;2.80;99.90
47090;DHT22;32840;52.516;13.294;2023-11-25T06:31:32;2.80;99.90
47090;DHT22;32840;52.516;13.294;2023-11-25T06:34:19;2.80;99.90
47090;DHT22;32840;52.516;13.294;2023-11-25T06:37:04;2.80;99.90
47090;DHT22;32840;52.516;13.294;2023-11-25T06:39:49;2.80;99.90
47090;DHT22;32840;52.516;13.294;2023-11-25T06:42:34;2.80;99.90
47090;DHT22;32840;52.516;13.294;2023-11-25T06:45:19;2.80;99.90
47090;DHT22;32840;52.516;13.294;2023-11-25T06:48:07;2.70;99.90
47090;DHT22;32840;52.516;13.294;2023-11-25T06:50:55;2.70;99.90
47090;DHT22;32840;52.516;13.294;2023-11-25T06:53:40;2.80;99.90
47090;DHT22;32840;52.516;13.294;2023-11-25T06:56:26;2.80;99.90
47090;DHT22;32840;52.516;13.294;2023-11-25T06:59:11;2.80;99.90
47090;DHT22;32840;52.516;13.294;2023-11-25T07:01:56;2.90;99.90
47090;DHT22;32840;52.516;13.294;2023-11-25T07:04:41;2.90;99.90
47090;DHT22;32840;52.516;13.294;2023-11-25T07:07:26;2.90;99.90
47090;DHT22;32840;52.516;13.294;2023-11-25T07:10:11;2.90;99.90
47090;DHT22;32840;52.516;13.294;2023-11-25T07:13:03;2.90;99.90
47090;DHT22;32840;52.516;13.294;2023-11-25T07:15:49;2.90;99.90
47090;DHT22;32840;52.516;13.294;2023-11-25T07:18:34;2.90;99.90
47090;DHT22;32840;52.516;13.294;2023-11-25T07:21:19;2.90;99.90
47090;DHT22;32840;52.516;13.294;2023-11-25T07:27:46;2.90;99.90
47090;DHT22;32840;52.516;13.294;2023-11-25T07:30:31;2.90;99.90
47090;DHT22;32840;52.516;13.294;2023-11-25T07:33:16;2.90;99.90
47090;DHT22;32840;52.516;13.294;2023-11-25T07:36:01;2.90;99.90
47090;DHT22;32840;52.516;13.294;2023-11-25T07:38:46;3.00;99.90
47090;DHT22;32840;52.516;13.294;2023-11-25T07:41:31;3.00;99.90
47090;DHT22;32840;52.516;13.294;2023-11-25T07:47:57;3.00;99.90
47090;DHT22;32840;52.516;13.294;2023-11-25T07:50:42;2.90;99.90
47090;DHT22;32840;52.516;13.294;2023-11-25T07:53:30;2.90;99.90
47090;DHT22;32840;52.516;13.294;2023-11-25T07:56:14;2.90;99.90
47090;DHT22;32840;52.516;13.294;2023-11-25T07:58:59;2.90;99.90
47090;DHT22;32840;52.516;13.294;2023-11-25T08:01:44;2.90;99.90
47090;DHT22;32840;52.516;13.294;2023-11-25T08:08:11;3.00;99.90
47090;DHT22;32840;52.516;13.294;2023-11-25T08:10:56;3.10;99.90
47090;DHT22;32840;52.516;13.294;2023-11-25T08:13:43;3.20;99.90
47090;DHT22;32840;52.516;13.294;2023-11-25T08:16:28;3.30;99.90
47090;DHT22;32840;52.516;13.294;2023-11-25T08:19:14;3.40;99.90
47090;DHT22;32840;52.516;13.294;2023-11-25T08:22:00;3.50;99.90
47090;DHT22;32840;52.516;13.294;2023-11-25T08:24:47;3.50;99.90
47090;DHT22;32840;52.516;13.294;2023-11-25T08:27:31;3.50;99.90
47090;DHT22;32840;52.516;13.294;2023-11-25T08:30:17;3.60;99.90
47090;DHT22;32840;52.516;13.294;2023-11-25T08:33:02;3.60;99.90
47090;DHT22;32840;52.516;13.294;2023-11-25T08:35:49;3.60;99.90
47090;DHT22;32840;52.516;13.294;2023-11-25T08:38:33;3.50;99.90
47090;DHT22;32840;52.516;13.294;2023-11-25T08:41:19;3.40;99.90
47090;DHT22;32840;52.516;13.294;2023-11-25T08:44:04;3.40;99.90
47090;DHT22;32840;52.516;13.294;2023-11-25T08:46:51;3.40;99.90
47090;DHT22;32840;52.516;13.294;2023-11-25T08:49:36;3.40;99.90
47090;DHT22;32840;52.516;13.294;2023-11-25T08:52:22;3.50;99.90
47090;DHT22;32840;52.516;13.294;2023-11-25T08:55:10;3.60;99.90
47090;DHT22;32840;52.516;13.294;2023-11-25T08:57:55;3.70;99.90
47090;DHT22;32840;52.516;13.294;2023-11-25T09:00:40;3.90;99.90
47090;DHT22;32840;52.516;13.294;2023-11-25T09:03:25;4.00;99.90
47090;DHT22;32840;52.516;13.294;2023-11-25T09:06:10;4.10;99.90
47090;DHT22;32840;52.516;13.294;2023-11-25T09:08:55;4.10;99.90
47090;DHT22;32840;52.516;13.294;2023-11-25T09:11:40;4.10;99.90
47090;DHT22;32840;52.516;13.294;2023-11-25T09:14:25;4.20;99.90
47090;DHT22;32840;52.516;13.294;2023-11-25T09:17:10;4.20;99.90
47090;DHT22;32840;52.516;13.294;2023-11-25T09:20:00;4.30;99.90
47090;DHT22;32840;52.516;13.294;2023-11-25T09:22:45;4.30;99.90
47090;DHT22;32840;52.516;13.294;2023-11-25T09:25:31;4.30;99.90
47090;DHT22;32840;52.516;13.294;2023-11-25T09:28:15;4.30;99.90
47090;DHT22;32840;52.516;13.294;2023-11-25T09:31:00;4.40;99.90
47090;DHT22;32840;52.516;13.294;2023-11-25T09:33:45;4.40;99.90
47090;DHT22;32840;52.516;13.294;2023-11-25T09:36:31;4.40;99.90
47090;DHT22;32840;52.516;13.294;2023-11-25T09:39:16;4.30;99.90
47090;DHT22;32840;52.516;13.294;2023-11-25T09:42:03;4.40;99.90
47090;DHT22;32840;52.516;13.294;2023-11-25T09:44:48;4.40;99.90
47090;DHT22;32840;52.516;13.294;2023-11-25T09:47:33;4.40;99.90
47090;DHT22;32840;52.516;13.294;2023-11-25T09:50:22;4.40;99.90
47090;DHT22;32840;52.516;13.294;2023-11-25T09:53:29;4.50;99.90
47090;DHT22;32840;52.516;13.294;2023-11-25T09:56:16;4.50;99.90
47090;DHT22;32840;52.516;13.294;2023-11-25T09:59:02;4.50;99.90
47090;DHT22;32840;52.516;13.294;2023-11-25T10:01:47;4.50;99.90
47090;DHT22;32840;52.516;13.294;2023-11-25T10:04:33;4.50;99.90
47090;DHT22;32840;52.516;13.294;2023-11-25T10:07:20;4.50;99.90
47090;DHT22;32840;52.516;13.294;2023-11-25T10:10:05;4.50;99.90
47090;DHT22;32840;52.516;13.294;2023-11-25T10:12:51;4.60;99.90
47090;DHT22;32840;52.516;13.294;2023-11-25T10:15:45;4.60;99.90
47090;DHT22;32840;52.516;13.294;2023-11-25T10:18:38;4.70;99.90
47090;DHT22;32840;52.516;13.294;2023-11-25T10:21:23;4.80;99.90
47090;DHT22;32840;52.516;13.294;2023-11-25T10:24:09;4.80;99.90
47090;DHT22;32840;52.516;13.294;2023-11-25T10:26:55;4.90;99.90
47090;DHT22;32840;52.516;13.294;2023-11-25T10:29:41;4.90;99.90
47090;DHT22;32840;52.516;13.294;2023-11-25T10:32:26;5.00;99.90
47090;DHT22;32840;52.516;13.294;2023-11-25T10:35:11;5.00;99.90
47090;DHT22;32840;52.516;13.294;2023-11-25T10:37:56;5.10;99.90
47090;DHT22;32840;52.516;13.294;2023-11-25T10:40:41;5.20;99.90
47090;DHT22;32840;52.516;13.294;2023-11-25T10:43:27;5.30;99.90
47090;DHT22;32840;52.516;13.294;2023-11-25T10:46:13;5.40;99.90
47090;DHT22;32840;52.516;13.294;2023-11-25T10:48:58;5.40;99.90
47090;DHT22;32840;52.516;13.294;2023-11-25T10:51:44;5.50;99.90
47090;DHT22;32840;52.516;13.294;2023-11-25T10:54:30;5.50;99.90
47090;DHT22;32840;52.516;13.294;2023-11-25T10:57:19;5.40;99.90
47090;DHT22;32840;52.516;13.294;2023-11-25T11:00:07;5.30;99.90
47090;DHT22;32840;52.516;13.294;2023-11-25T11:02:59;5.30;99.90
47090;DHT22;32840;52.516;13.294;2023-11-25T11:05:54;5.50;99.90
47090;DHT22;32840;52.516;13.294;2023-11-25T11:08:46;5.50;99.90
47090;DHT22;32840;52.516;13.294;2023-11-25T11:11:51;5.50;99.90
47090;DHT22;32840;52.516;13.294;2023-11-25T11:14:41;5.50;99.90
47090;DHT22;32840;52.516;13.294;2023-11-25T11:17:37;5.40;99.90
47090;DHT22;32840;52.516;13.294;2023-11-25T11:20:27;5.50;99.90
47090;DHT22;32840;52.516;13.294;2023-11-25T11:23:14;5.50;99.90
47090;DHT22;32840;52.516;13.294;2023-11-25T11:32:10;5.30;99.90
47090;DHT22;32840;52.516;13.294;2023-11-25T11:35:07;5.30;99.90
47090;DHT22;32840;52.516;13.294;2023-11-25T11:37:52;5.30;99.90
47090;DHT22;32840;52.516;13.294;2023-11-25T11:40:37;5.30;99.90
47090;DHT22;32840;52.516;13.294;2023-11-25T11:43:23;5.20;99.90
47090;DHT22;32840;52.516;13.294;2023-11-25T11:46:08;5.20;99.90
47090;DHT22;32840;52.516;13.294;2023-11-25T11:48:53;5.20;99.90
47090;DHT22;32840;52.516;13.294;2023-11-25T11:51:59;5.20;99.90
47090;DHT22;32840;52.516;13.294;2023-11-25T11:54:49;5.00;99.90
47090;DHT22;32840;52.516;13.294;2023-11-25T12:03:45;4.90;99.90
47090;DHT22;32840;52.516;13.294;2023-11-25T12:06:30;5.00;99.90
47090;DHT22;32840;52.516;13.294;2023-11-25T12:09:17;5.10;99.90
47090;DHT22;32840;52.516;13.294;2023-11-25T12:12:02;5.00;99.90
47090;DHT22;32840;52.516;13.294;2023-11-25T12:14:48;4.90;99.90
47090;DHT22;32840;52.516;13.294;2023-11-25T12:17:34;5.00;99.90
47090;DHT22;32840;52.516;13.294;2023-11-25T12:20:19;5.10;99.90
47090;DHT22;32840;52.516;13.294;2023-11-25T12:23:06;5.00;99.90
47090;DHT22;32840;52.516;13.294;2023-11-25T12:25:51;5.10;99.90
47090;DHT22;32840;52.516;13.294;2023-11-25T12:28:41;5.00;99.90
47090;DHT22;32840;52.516;13.294;2023-11-25T12:31:28;4.90;99.90
47090;DHT22;32840;52.516;13.294;2023-11-25T12:34:14;4.90;99.90
47090;DHT22;32840;52.516;13.294;2023-11-25T12:37:00;5.00;99.90
47090;DHT22;32840;52.516;13.294;2023-11-25T12:39:44;5.00;99.90
47090;DHT22;32840;52.516;13.294;2023-11-25T12:42:29;4.90;99.90
47090;DHT22;32840;52.516;13.294;2023-11-25T12:45:33;4.80;99.90
47090;DHT22;32840;52.516;13.294;2023-11-25T12:48:29;4.70;99.90
47090;DHT22;32840;52.516;13.294;2023-11-25T12:51:15;4.80;99.90
47090;DHT22;32840;52.516;13.294;2023-11-25T12:54:00;4.80;99.90
47090;DHT22;32840;52.516;13.294;2023-11-25T12:56:54;4.90;99.90
47090;DHT22;32840;52.516;13.294;2023-11-25T12:59:41;4.90;99.90
47090;DHT22;32840;52.516;13.294;2023-11-25T13:02:27;4.80;99.90
47090;DHT22;32840;52.516;13.294;2023-11-25T13:05:19;4.90;99.90
47090;DHT22;32840;52.516;13.294;2023-11-25T13:08:25;4.80;99.90
47090;DHT22;32840;52.516;13.294;2023-11-25T13:11:13;4.80;99.90
47090;DHT22;32840;52.516;13.294;2023-11-25T13:14:02;4.80;99.90
47090;DHT22;32840;52.516;13.294;2023-11-25T13:16:47;4.80;99.90
47090;DHT22;32840;52.516;13.294;2023-11-25T13:19:32;4.70;99.90
47090;DHT22;32840;52.516;13.294;2023-11-25T13:22:18;4.60;99.90
47090;DHT22;32840;52.516;13.294;2023-11-25T13:25:04;4.50;99.90
47090;DHT22;32840;52.516;13.294;2023-11-25T13:27:50;4.50;99.90
47090;DHT22;32840;52.516;13.294;2023-11-25T13:30:35;4.30;99.90
47090;DHT22;32840;52.516;13.294;2023-11-25T13:33:20;4.30;99.90
47090;DHT22;32840;52.516;13.294;2023-11-25T13:36:14;4.30;99.90
47090;DHT22;32840;52.516;13.294;2023-11-25T13:39:00;4.10;99.90
47090;DHT22;32840;52.516;13.294;2023-11-25T13:41:48;4.10;99.90
47090;DHT22;32840;52.516;13.294;2023-11-25T13:44:33;4.00;99.90
47090;DHT22;32840;52.516;13.294;2023-11-25T13:47:18;4.00;99.90
47090;DHT22;32840;52.516;13.294;2023-11-25T13:50:03;4.00;99.90
47090;DHT22;32840;52.516;13.294;2023-11-25T13:52:48;4.00;99.90
47090;DHT22;32840;52.516;13.294;2023-11-25T13:55:34;4.10;99.90
47090;DHT22;32840;52.516;13.294;2023-11-25T13:58:27;4.10;99.90
47090;DHT22;32840;52.516;13.294;2023-11-25T14:01:12;4.10;99.90
47090;DHT22;32840;52.516;13.294;2023-11-25T14:03:58;4.00;99.90
47090;DHT22;32840;52.516;13.294;2023-11-25T14:06:45;3.90;99.90
47090;DHT22;32840;52.516;13.294;2023-11-25T14:09:31;3.90;99.90
47090;DHT22;32840;52.516;13.294;2023-11-25T14:12:15;4.00;99.90
47090;DHT22;32840;52.516;13.294;2023-11-25T14:15:00;4.00;99.90
47090;DHT22;32840;52.516;13.294;2023-11-25T14:17:47;4.00;99.90
47090;DHT22;32840;52.516;13.294;2023-11-25T14:20:33;3.80;99.90
47090;DHT22;32840;52.516;13.294;2023-11-25T14:23:17;3.80;99.90
47090;DHT22;32840;52.516;13.294;2023-11-25T14:26:03;3.80;99.90
47090;DHT22;32840;52.516;13.294;2023-11-25T14:28:50;3.90;99.90
47090;DHT22;32840;52.516;13.294;2023-11-25T14:31:35;3.90;99.90
47090;DHT22;32840;52.516;13.294;2023-11-25T14:34:19;3.90;99.90
47090;DHT22;32840;52.516;13.294;2023-11-25T14:37:06;3.90;99.90
47090;DHT22;32840;52.516;13.294;2023-11-25T14:39:51;3.90;99.90
47090;DHT22;32840;52.516;13.294;2023-11-25T14:42:37;3.90;99.90
47090;DHT22;32840;52.516;13.294;2023-11-25T14:45:22;3.90;99.90
47090;DHT22;32840;52.516;13.294;2023-11-25T14:48:08;3.90;99.90
47090;DHT22;32840;52.516;13.294;2023-11-25T14:50:55;3.80;99.90
47090;DHT22;32840;52.516;13.294;2023-11-25T14:53:39;3.90;99.90
47090;DHT22;32840;52.516;13.294;2023-11-25T14:56:24;3.90;99.90
47090;DHT22;32840;52.516;13.294;2023-11-25T14:59:09;3.80;99.90
47090;DHT22;32840;52.516;13.294;2023-11-25T15:01:54;3.90;99.90
47090;DHT22;32840;52.516;13.294;2023-11-25T15:04:39;3.90;99.90
47090;DHT22;32840;52.516;13.294;2023-11-25T15:07:24;3.90;99.90
47090;DHT22;32840;52.516;13.294;2023-11-25T15:10:09;3.90;99.90
47090;DHT22;32840;52.516;13.294;2023-11-25T15:12:54;4.00;99.90
47090;DHT22;32840;52.516;13.294;2023-11-25T15:15:40;3.90;99.90
47090;DHT22;32840;52.516;13.294;2023-11-25T15:18:25;3.90;99.90
47090;DHT22;32840;52.516;13.294;2023-11-25T15:21:16;3.90;99.90
47090;DHT22;32840;52.516;13.294;2023-11-25T15:24:02;3.90;99.90
47090;DHT22;32840;52.516;13.294;2023-11-25T15:26:47;3.90;99.90
47090;DHT22;32840;52.516;13.294;2023-11-25T15:29:32;4.00;99.90
47090;DHT22;32840;52.516;13.294;2023-11-25T15:32:17;3.90;99.90
47090;DHT22;32840;52.516;13.294;2023-11-25T15:35:02;3.90;99.90
47090;DHT22;32840;52.516;13.294;2023-11-25T15:37:48;3.90;99.90
47090;DHT22;32840;52.516;13.294;2023-11-25T15:40:33;3.90;99.90
47090;DHT22;32840;52.516;13.294;2023-11-25T15:43:18;3.90;99.90
47090;DHT22;32840;52.516;13.294;2023-11-25T15:46:03;3.90;99.90
47090;DHT22;32840;52.516;13.294;2023-11-25T15:48:52;3.90;99.90
47090;DHT22;32840;52.516;13.294;2023-11-25T15:51:36;3.90;99.90
47090;DHT22;32840;52.516;13.294;2023-11-25T15:54:21;3.80;99.90
47090;DHT22;32840;52.516;13.294;2023-11-25T15:57:07;3.80;99.90
47090;DHT22;32840;52.516;13.294;2023-11-25T15:59:53;3.80;99.90
47090;DHT22;32840;52.516;13.294;2023-11-25T16:02:38;3.70;99.90
47090;DHT22;32840;52.516;13.294;2023-11-25T16:05:23;3.70;99.90
47090;DHT22;32840;52.516;13.294;2023-11-25T16:08:10;3.80;99.90
47090;DHT22;32840;52.516;13.294;2023-11-25T16:10:54;3.90;99.90
47090;DHT22;32840;52.516;13.294;2023-11-25T16:13:40;3.90;99.90
47090;DHT22;32840;52.516;13.294;2023-11-25T16:16:25;3.90;99.90
47090;DHT22;32840;52.516;13.294;2023-11-25T16:19:14;3.90;99.90
47090;DHT22;32840;52.516;13.294;2023-11-25T16:21:59;3.80;99.90
47090;DHT22;32840;52.516;13.294;2023-11-25T16:24:44;3.80;99.90
47090;DHT22;32840;52.516;13.294;2023-11-25T16:27:32;3.80;99.90
47090;DHT22;32840;52.516;13.294;2023-11-25T16:30:18;3.80;99.90
47090;DHT22;32840;52.516;13.294;2023-11-25T16:33:06;3.90;99.90
47090;DHT22;32840;52.516;13.294;2023-11-25T16:35:51;3.80;99.90
47090;DHT22;32840;52.516;13.294;2023-11-25T16:38:35;3.90;99.90
47090;DHT22;32840;52.516;13.294;2023-11-25T16:41:21;3.80;99.90
47090;DHT22;32840;52.516;13.294;2023-11-25T16:44:07;3.80;99.90
47090;DHT22;32840;52.516;13.294;2023-11-25T16:46:52;3.80;99.90
47090;DHT22;32840;52.516;13.294;2023-11-25T16:49:37;3.80;99.90
47090;DHT22;32840;52.516;13.294;2023-11-25T16:52:22;3.90;99.90
47090;DHT22;32840;52.516;13.294;2023-11-25T16:55:07;3.90;99.90
47090;DHT22;32840;52.516;13.294;2023-11-25T16:57:53;3.90;99.90
47090;DHT22;32840;52.516;13.294;2023-11-25T17:00:38;4.00;99.90
47090;DHT22;32840;52.516;13.294;2023-11-25T17:03:23;3.90;99.90
47090;DHT22;32840;52.516;13.294;2023-11-25T17:06:08;3.90;99.90
47090;DHT22;32840;52.516;13.294;2023-11-25T17:08:54;4.10;99.90
47090;DHT22;32840;52.516;13.294;2023-11-25T17:11:38;4.10;99.90
47090;DHT22;32840;52.516;13.294;2023-11-25T17:18:05;4.00;99.90
47090;DHT22;32840;52.516;13.294;2023-11-25T17:20:49;3.90;99.90
47090;DHT22;32840;52.516;13.294;2023-11-25T17:23:34;3.80;99.90
47090;DHT22;32840;52.516;13.294;2023-11-25T17:26:19;3.90;99.90
47090;DHT22;32840;52.516;13.294;2023-11-25T17:29:04;3.90;99.90
47090;DHT22;32840;52.516;13.294;2023-11-25T17:31:49;3.90;99.90
47090;DHT22;32840;52.516;13.294;2023-11-25T17:38:17;4.10;99.90
47090;DHT22;32840;52.516;13.294;2023-11-25T17:41:02;4.00;99.90
47090;DHT22;32840;52.516;13.294;2023-11-25T17:44:06;4.10;99.90
47090;DHT22;32840;52.516;13.294;2023-11-25T17:46:52;4.10;99.90
47090;DHT22;32840;52.516;13.294;2023-11-25T17:49:37;4.00;99.90
47090;DHT22;32840;52.516;13.294;2023-11-25T17:52:33;4.00;99.90
47090;DHT22;32840;52.516;13.294;2023-11-25T17:55:21;4.00;99.90
47090;DHT22;32840;52.516;13.294;2023-11-25T17:58:12;4.10;99.90
47090;DHT22;32840;52.516;13.294;2023-11-25T18:00:59;4.10;99.90
47090;DHT22;32840;52.516;13.294;2023-11-25T18:03:44;4.00;99.90